createdAt,value
2019-01-21T00:01:03.481Z,-3.20
2019-01-21T00:03:32.479Z,-3.20
2019-01-21T00:06:01.379Z,-3.40
2019-01-21T00:08:30.621Z,-3.50
2019-01-21T00:10:59.647Z,-3.50
2019-01-21T00:13:28.542Z,-3.40
2019-01-21T00:15:57.606Z,-3.40
2019-01-21T00:18:26.385Z,-3.40
2019-01-21T00:20:55.207Z,-3.30
2019-01-21T00:23:24.268Z,-3.30
2019-01-21T00:25:53.317Z,-3.30
2019-01-21T00:28:22.139Z,-3.40
2019-01-21T00:30:51.184Z,-3.40
2019-01-21T00:33:20.016Z,-3.40
2019-01-21T00:35:49.033Z,-3.40
2019-01-21T00:38:18.097Z,-3.30
2019-01-21T00:40:46.900Z,-3.30
2019-01-21T00:43:15.731Z,-3.40
2019-01-21T00:45:44.873Z,-3.40
2019-01-21T00:48:13.754Z,-3.40
2019-01-21T00:50:42.558Z,-3.50
2019-01-21T00:53:11.621Z,-3.50
2019-01-21T00:55:40.443Z,-3.50
2019-01-21T00:58:09.591Z,-3.60
2019-01-21T01:00:38.736Z,-3.60
2019-01-21T01:03:07.736Z,-3.60
2019-01-21T01:05:36.702Z,-3.60
2019-01-21T01:08:06.172Z,-3.60
2019-01-21T01:10:35.080Z,-3.60
2019-01-21T01:13:04.019Z,-3.70
2019-01-21T01:15:33.326Z,-3.70
2019-01-21T01:18:02.343Z,-3.70
2019-01-21T01:20:31.225Z,-3.70
2019-01-21T01:23:03.236Z,-3.70
2019-01-21T01:25:32.090Z,-3.70
2019-01-21T01:28:01.044Z,-3.70
2019-01-21T01:30:30.189Z,-3.90
2019-01-21T01:32:58.995Z,-3.90
2019-01-21T01:35:27.815Z,-3.80
2019-01-21T01:37:56.901Z,-3.80
2019-01-21T01:40:25.832Z,-3.80
2019-01-21T01:42:54.813Z,-3.90
2019-01-21T01:45:27.909Z,-4.00
2019-01-21T01:48:03.484Z,-3.90
2019-01-21T01:50:32.654Z,-3.90
2019-01-21T01:53:01.862Z,-3.90
2019-01-21T01:55:31.665Z,-4.00
2019-01-21T01:58:07.803Z,-4.00
2019-01-21T02:00:37.048Z,-4.00
2019-01-21T02:03:06.037Z,-4.00
2019-01-21T02:05:35.021Z,-4.00
2019-01-21T02:08:03.966Z,-4.00
2019-01-21T02:10:33.059Z,-4.00
2019-01-21T02:13:02.319Z,-4.00
2019-01-21T02:15:31.258Z,-4.00
2019-01-21T02:18:01.720Z,-4.00
2019-01-21T02:20:30.921Z,-4.10
2019-01-21T02:23:03.607Z,-4.10
2019-01-21T02:25:44.413Z,-4.10
2019-01-21T02:28:36.844Z,-4.10
2019-01-21T02:31:30.389Z,-4.30
2019-01-21T02:34:27.834Z,-4.20
2019-01-21T02:37:25.498Z,-4.10
2019-01-21T02:40:25.339Z,-4.30
2019-01-21T02:43:02.173Z,-4.20
2019-01-21T02:45:43.149Z,-4.20
2019-01-21T02:48:32.823Z,-4.20
2019-01-21T02:51:22.813Z,-4.30
2019-01-21T02:54:31.950Z,-4.30
2019-01-21T02:57:26.208Z,-4.20
2019-01-21T03:00:30.413Z,-4.20
2019-01-21T03:03:48.323Z,-4.30
2019-01-21T03:06:39.599Z,-4.30
2019-01-21T03:09:39.479Z,-4.30
2019-01-21T03:12:39.161Z,-4.30
2019-01-21T03:15:52.902Z,-4.20
2019-01-21T03:19:13.975Z,-4.20
2019-01-21T03:22:36.401Z,-4.20
2019-01-21T03:25:50.179Z,-4.20
2019-01-21T03:28:55.795Z,-4.20
2019-01-21T03:31:55.284Z,-4.20
2019-01-21T03:34:49.154Z,-4.20
2019-01-21T03:38:03.755Z,-4.20
2019-01-21T03:40:42.382Z,-4.20
2019-01-21T03:43:48.448Z,-4.20
2019-01-21T03:46:46.407Z,-4.20
2019-01-21T03:49:26.042Z,-4.30
2019-01-21T03:52:37.776Z,-4.30
2019-01-21T03:55:11.074Z,-4.30
2019-01-21T03:58:22.770Z,-4.20
2019-01-21T04:01:44.232Z,-4.20
2019-01-21T04:04:45.749Z,-4.30
2019-01-21T04:07:23.231Z,-4.40
2019-01-21T04:10:15.301Z,-4.40
2019-01-21T04:13:37.657Z,-4.40
2019-01-21T04:16:27.636Z,-4.30
2019-01-21T04:19:06.274Z,-4.40
2019-01-21T04:22:01.165Z,-4.40
2019-01-21T04:24:49.469Z,-4.40
2019-01-21T04:27:44.532Z,-4.40
2019-01-21T04:30:51.285Z,-4.40
2019-01-21T04:34:13.837Z,-4.60
2019-01-21T04:37:18.857Z,-4.40
2019-01-21T04:40:01.613Z,-4.40
2019-01-21T04:43:27.094Z,-4.50
2019-01-21T04:46:08.277Z,-4.50
2019-01-21T04:49:12.440Z,-4.50
2019-01-21T04:52:22.323Z,-4.50
2019-01-21T04:55:42.140Z,-4.60
2019-01-21T04:58:31.186Z,-4.70
2019-01-21T05:01:36.222Z,-4.60
2019-01-21T05:04:41.404Z,-4.60
2019-01-21T05:07:51.808Z,-4.50
2019-01-21T05:10:56.669Z,-4.60
2019-01-21T05:13:48.741Z,-4.60
2019-01-21T05:16:51.792Z,-4.50
2019-01-21T05:19:59.016Z,-4.50
2019-01-21T05:23:06.455Z,-4.60
2019-01-21T05:26:15.756Z,-4.60
2019-01-21T05:29:09.933Z,-4.60
2019-01-21T05:32:22.702Z,-4.60
2019-01-21T05:35:30.702Z,-4.60
2019-01-21T05:38:19.513Z,-4.60
2019-01-21T05:41:16.954Z,-4.70
2019-01-21T05:44:39.381Z,-4.60
2019-01-21T05:47:55.297Z,-4.70
2019-01-21T05:51:06.366Z,-4.60
2019-01-21T05:54:04.744Z,-4.70
2019-01-21T05:57:04.742Z,-4.70
2019-01-21T06:00:10.300Z,-4.80
2019-01-21T06:03:29.528Z,-4.80
2019-01-21T06:06:24.628Z,-4.80
2019-01-21T06:09:24.053Z,-4.90
2019-01-21T06:12:21.508Z,-4.90
2019-01-21T06:15:20.605Z,-4.80
2019-01-21T06:18:57.159Z,-4.80
2019-01-21T06:22:02.616Z,-4.80
2019-01-21T06:24:53.312Z,-4.90
2019-01-21T06:28:01.588Z,-4.90
2019-01-21T06:31:14.597Z,-4.90
2019-01-21T06:34:19.299Z,-4.90
2019-01-21T06:37:08.967Z,-4.90
2019-01-21T06:40:13.057Z,-4.90
2019-01-21T06:43:18.021Z,-4.90
2019-01-21T06:46:22.871Z,-5.00
2019-01-21T06:49:36.933Z,-5.00
2019-01-21T06:52:39.317Z,-5.10
2019-01-21T06:55:45.056Z,-5.00
2019-01-21T06:58:42.857Z,-5.10
2019-01-21T07:01:49.223Z,-5.10
2019-01-21T07:04:41.652Z,-5.10
2019-01-21T07:07:47.363Z,-5.20
2019-01-21T07:10:29.246Z,-5.10
2019-01-21T07:13:14.164Z,-5.10
2019-01-21T07:16:19.819Z,-5.10
2019-01-21T07:19:18.951Z,-5.10
2019-01-21T07:22:28.493Z,-5.10
2019-01-21T07:25:26.547Z,-5.10
2019-01-21T07:28:31.325Z,-5.10
2019-01-21T07:31:25.365Z,-5.10
2019-01-21T07:34:36.919Z,-4.90
2019-01-21T07:37:43.756Z,-4.90
2019-01-21T07:40:56.663Z,-5.00
2019-01-21T07:43:47.502Z,-4.90
2019-01-21T07:46:54.429Z,-4.90
2019-01-21T07:49:53.791Z,-4.90
2019-01-21T07:52:49.352Z,-4.90
2019-01-21T07:55:59.871Z,-4.90
2019-01-21T07:58:54.027Z,-4.90
2019-01-21T08:01:34.227Z,-4.90
2019-01-21T08:04:36.421Z,-4.90
2019-01-21T08:07:27.151Z,-4.90
2019-01-21T08:10:33.092Z,-4.90
2019-01-21T08:13:28.597Z,-4.80
2019-01-21T08:16:43.467Z,-4.70
2019-01-21T08:19:42.392Z,-4.70
2019-01-21T08:22:52.453Z,-4.70
2019-01-21T08:25:57.903Z,-4.60
2019-01-21T08:28:36.510Z,-4.60
2019-01-21T08:31:38.737Z,-4.60
2019-01-21T08:35:03.015Z,-4.50
2019-01-21T08:38:07.222Z,-4.40
2019-01-21T08:40:58.880Z,-4.30
2019-01-21T08:43:57.263Z,-4.10
2019-01-21T08:46:57.148Z,-4.10
2019-01-21T08:50:09.634Z,-3.90
2019-01-21T08:53:06.975Z,-4.00
2019-01-21T08:56:07.968Z,-3.70
2019-01-21T08:59:12.055Z,-3.50
2019-01-21T09:02:05.181Z,-3.40
2019-01-21T09:04:49.088Z,-3.20
2019-01-21T09:07:57.304Z,-3.00
2019-01-21T09:10:59.391Z,-2.80
2019-01-21T09:14:14.115Z,-2.30
2019-01-21T09:16:58.288Z,-1.80
2019-01-21T09:20:23.135Z,-1.90
2019-01-21T09:23:14.311Z,-2.00
2019-01-21T09:26:17.200Z,-2.10
2019-01-21T09:29:14.097Z,-2.10
2019-01-21T09:32:39.098Z,-2.10
2019-01-21T09:35:35.049Z,-2.00
2019-01-21T09:38:39.384Z,-1.90
2019-01-21T09:41:35.263Z,-1.80
2019-01-21T09:44:29.647Z,-1.50
2019-01-21T09:46:57.367Z,-1.40
2019-01-21T09:49:24.835Z,-1.30
2019-01-21T09:52:16.505Z,-1.10
2019-01-21T09:54:45.476Z,-1.30
2019-01-21T09:57:20.128Z,-1.10
2019-01-21T09:59:52.541Z,-0.90
2019-01-21T10:02:28.804Z,-0.70
2019-01-21T10:05:03.128Z,-0.60
2019-01-21T10:07:43.044Z,-0.50
2019-01-21T10:10:36.827Z,-0.40
2019-01-21T10:13:59.175Z,-0.50
2019-01-21T10:16:54.121Z,-0.30
2019-01-21T10:19:42.829Z,-0.10
2019-01-21T10:22:50.811Z,-0.20
2019-01-21T10:25:37.313Z,0.10
2019-01-21T10:28:38.329Z,0.20
2019-01-21T10:32:01.455Z,0.30
2019-01-21T10:35:19.088Z,0.60
2019-01-21T10:38:18.594Z,0.60
2019-01-21T10:41:46.554Z,0.60
2019-01-21T10:44:49.121Z,0.70
2019-01-21T10:48:11.031Z,0.80
2019-01-21T10:51:00.294Z,1.00
2019-01-21T10:53:44.995Z,1.10
2019-01-21T10:56:42.139Z,1.50
2019-01-21T10:59:54.993Z,1.30
2019-01-21T11:03:10.175Z,1.50
2019-01-21T11:06:12.628Z,1.60
2019-01-21T11:09:12.153Z,1.70
2019-01-21T11:12:23.551Z,1.80
2019-01-21T11:15:08.065Z,2.10
2019-01-21T11:18:17.748Z,2.40
2019-01-21T11:21:20.450Z,2.30
2019-01-21T11:24:28.064Z,2.30
2019-01-21T11:27:43.077Z,2.40
2019-01-21T11:31:08.908Z,2.60
2019-01-21T11:34:25.535Z,2.70
2019-01-21T11:37:25.039Z,2.90
2019-01-21T11:40:34.352Z,2.70
2019-01-21T11:43:43.350Z,2.70
2019-01-21T11:46:49.831Z,2.80
2019-01-21T11:49:50.100Z,3.20
2019-01-21T11:52:38.046Z,3.30
2019-01-21T11:56:03.240Z,2.90
2019-01-21T11:59:07.808Z,3.10
2019-01-21T12:02:11.447Z,3.10
2019-01-21T12:04:55.615Z,3.30
2019-01-21T12:07:49.796Z,3.50
2019-01-21T12:10:53.707Z,3.50
2019-01-21T12:13:56.896Z,3.50
2019-01-21T12:17:07.963Z,3.60
2019-01-21T12:19:56.541Z,3.70
2019-01-21T12:22:55.626Z,3.90
2019-01-21T12:25:31.843Z,3.80
2019-01-21T12:28:40.781Z,3.60
2019-01-21T12:31:50.509Z,3.80
2019-01-21T12:34:47.319Z,4.00
2019-01-21T12:37:27.422Z,4.10
2019-01-21T12:40:07.510Z,4.30
2019-01-21T12:43:00.981Z,4.10
2019-01-21T12:45:51.100Z,4.10
2019-01-21T12:49:10.139Z,4.10
2019-01-21T12:52:15.178Z,4.40
2019-01-21T12:54:56.591Z,4.60
2019-01-21T12:58:02.625Z,4.60
2019-01-21T13:00:58.209Z,4.40
2019-01-21T13:04:20.672Z,4.60
2019-01-21T13:07:02.649Z,4.60
2019-01-21T13:09:53.287Z,4.60
2019-01-21T13:12:57.373Z,4.50
2019-01-21T13:16:16.853Z,4.50
2019-01-21T13:19:30.438Z,4.50
2019-01-21T13:22:28.191Z,4.40
2019-01-21T13:25:52.064Z,4.50
2019-01-21T13:28:41.455Z,4.50
2019-01-21T13:32:03.123Z,4.50
2019-01-21T13:35:01.371Z,4.50
2019-01-21T13:38:00.552Z,4.50
2019-01-21T13:41:02.032Z,4.60
2019-01-21T13:43:40.471Z,4.40
2019-01-21T13:46:52.621Z,4.60
2019-01-21T13:49:30.904Z,4.60
2019-01-21T13:52:28.498Z,4.60
2019-01-21T13:55:13.397Z,4.70
2019-01-21T13:58:05.096Z,4.40
2019-01-21T14:00:45.777Z,4.40
2019-01-21T14:03:37.526Z,4.40
2019-01-21T14:06:41.321Z,4.40
2019-01-21T14:09:37.543Z,4.30
2019-01-21T14:13:02.460Z,4.20
2019-01-21T14:15:53.668Z,4.20
2019-01-21T14:18:50.247Z,4.10
2019-01-21T14:21:56.051Z,4.10
2019-01-21T14:25:10.218Z,4.10
2019-01-21T14:28:22.428Z,4.10
2019-01-21T14:31:07.603Z,4.00
2019-01-21T14:34:03.364Z,3.90
2019-01-21T14:37:09.301Z,3.90
2019-01-21T14:39:51.932Z,3.90
2019-01-21T14:42:55.504Z,3.80
2019-01-21T14:45:48.475Z,3.90
2019-01-21T14:49:13.728Z,3.70
2019-01-21T14:52:02.149Z,3.70
2019-01-21T14:55:13.212Z,3.70
2019-01-21T14:58:12.774Z,3.70
2019-01-21T15:01:15.602Z,3.60
2019-01-21T15:04:21.381Z,3.60
2019-01-21T15:07:15.372Z,3.60
2019-01-21T15:10:10.279Z,3.50
2019-01-21T15:13:14.048Z,3.50
2019-01-21T15:16:14.811Z,3.40
2019-01-21T15:19:14.602Z,3.40
2019-01-21T15:22:13.775Z,3.40
2019-01-21T15:25:22.544Z,3.40
2019-01-21T15:28:26.383Z,3.30
2019-01-21T15:31:19.863Z,3.30
2019-01-21T15:33:58.643Z,3.20
2019-01-21T15:36:59.464Z,3.20
2019-01-21T15:39:57.933Z,3.20
2019-01-21T15:42:50.561Z,3.10
2019-01-21T15:45:52.605Z,3.00
2019-01-21T15:48:46.283Z,2.90
2019-01-21T15:51:55.545Z,2.80
2019-01-21T15:55:02.873Z,2.80
2019-01-21T15:57:41.002Z,2.60
2019-01-21T16:00:43.164Z,2.60
2019-01-21T16:04:06.787Z,2.50
2019-01-21T16:07:08.878Z,2.40
2019-01-21T16:10:03.162Z,2.30
2019-01-21T16:13:11.623Z,2.30
2019-01-21T16:16:30.573Z,2.30
2019-01-21T16:19:09.037Z,2.20
2019-01-21T16:22:15.249Z,2.10
2019-01-21T16:24:58.364Z,2.00
2019-01-21T16:28:07.505Z,2.00
2019-01-21T16:30:49.727Z,1.90
2019-01-21T16:34:06.432Z,1.90
2019-01-21T16:36:53.365Z,1.80
2019-01-21T16:39:50.501Z,1.80
2019-01-21T16:42:17.957Z,1.80
2019-01-21T16:44:47.700Z,1.80
2019-01-21T16:47:16.925Z,1.70
2019-01-21T16:49:46.015Z,1.70
2019-01-21T16:52:14.905Z,1.70
2019-01-21T16:54:43.972Z,1.60
2019-01-21T16:57:12.898Z,1.50
2019-01-21T16:59:41.707Z,1.50
2019-01-21T17:02:10.785Z,1.50
2019-01-21T17:04:39.751Z,1.50
2019-01-21T17:07:08.880Z,1.50
2019-01-21T17:09:37.892Z,1.50
2019-01-21T17:12:06.783Z,1.50
2019-01-21T17:14:35.710Z,1.40
2019-01-21T17:17:04.837Z,1.40
2019-01-21T17:19:33.694Z,1.30
2019-01-21T17:22:02.612Z,1.30
2019-01-21T17:24:31.839Z,1.30
2019-01-21T17:27:00.708Z,1.30
2019-01-21T17:29:29.497Z,1.30
2019-01-21T17:32:03.714Z,1.30
2019-01-21T17:34:32.615Z,1.40
2019-01-21T17:37:01.487Z,1.30
2019-01-21T17:39:30.552Z,1.30
2019-01-21T17:41:59.452Z,1.30
2019-01-21T17:44:28.236Z,1.30
2019-01-21T17:46:57.533Z,1.20
2019-01-21T17:49:26.405Z,1.30
2019-01-21T17:51:55.317Z,1.20
2019-01-21T17:54:24.372Z,1.20
2019-01-21T17:56:53.478Z,1.10
2019-01-21T17:59:22.285Z,1.20
2019-01-21T18:01:51.256Z,1.20
2019-01-21T18:04:22.625Z,1.20
2019-01-21T18:06:51.601Z,1.20
2019-01-21T18:09:20.580Z,1.00
2019-01-21T18:11:49.416Z,1.00
2019-01-21T18:14:18.249Z,1.00
2019-01-21T18:16:47.320Z,1.00
2019-01-21T18:19:16.149Z,1.00
2019-01-21T18:21:44.991Z,0.90
2019-01-21T18:24:13.995Z,0.90
2019-01-21T18:26:42.853Z,0.90
2019-01-21T18:29:11.740Z,0.90
2019-01-21T18:31:40.710Z,0.80
2019-01-21T18:34:09.839Z,0.80
2019-01-21T18:36:38.712Z,0.80
2019-01-21T18:39:13.467Z,0.80
2019-01-21T18:41:42.320Z,0.80
2019-01-21T18:44:11.364Z,0.70
2019-01-21T18:46:40.349Z,0.70
2019-01-21T18:49:09.239Z,0.70
2019-01-21T18:51:38.155Z,0.70
2019-01-21T18:54:07.177Z,0.70
2019-01-21T18:56:36.005Z,0.70
2019-01-21T18:59:05.041Z,0.60
2019-01-21T19:01:34.162Z,0.60
2019-01-21T19:04:03.125Z,0.60
2019-01-21T19:06:32.003Z,0.60
2019-01-21T19:09:01.198Z,0.60
2019-01-21T19:11:29.995Z,0.60
2019-01-21T19:13:58.891Z,0.50
2019-01-21T19:16:27.841Z,0.50
2019-01-21T19:18:56.988Z,0.50
2019-01-21T19:21:26.038Z,0.50
2019-01-21T19:23:55.092Z,0.50
2019-01-21T19:26:23.960Z,0.50
2019-01-21T19:28:52.819Z,0.50
2019-01-21T19:31:21.824Z,0.50
2019-01-21T19:33:50.754Z,0.50
2019-01-21T19:36:19.558Z,0.50
2019-01-21T19:38:48.632Z,0.50
2019-01-21T19:41:17.454Z,0.50
2019-01-21T19:43:46.363Z,0.50
2019-01-21T19:46:15.577Z,0.50
2019-01-21T19:48:44.534Z,0.50
2019-01-21T19:51:15.247Z,0.40
2019-01-21T19:53:44.273Z,0.40
2019-01-21T19:56:13.273Z,0.40
2019-01-21T19:58:42.233Z,0.40
2019-01-21T20:01:11.730Z,0.40
2019-01-21T20:03:40.581Z,0.40
2019-01-21T20:06:09.515Z,0.40
2019-01-21T20:08:38.495Z,0.30
2019-01-21T20:11:07.664Z,0.30
2019-01-21T20:13:36.849Z,0.30
2019-01-21T20:16:05.922Z,0.30
2019-01-21T20:18:34.808Z,0.30
2019-01-21T20:21:04.468Z,0.30
2019-01-21T20:23:33.521Z,0.20
2019-01-21T20:26:02.501Z,0.20
2019-01-21T20:28:31.456Z,0.30
2019-01-21T20:31:00.836Z,0.20
2019-01-21T20:33:29.651Z,0.20
2019-01-21T20:35:58.644Z,0.10
2019-01-21T20:38:27.726Z,0.20
2019-01-21T20:40:56.708Z,0.10
2019-01-21T20:43:25.589Z,0.10
2019-01-21T20:45:54.840Z,0.10
2019-01-21T20:48:23.922Z,0.20
2019-01-21T20:50:53.062Z,0.30
2019-01-21T20:53:22.235Z,0.30
2019-01-21T20:55:51.387Z,0.50
2019-01-21T20:58:20.267Z,0.50
2019-01-21T21:00:49.407Z,0.50
2019-01-21T21:03:18.367Z,0.50
2019-01-21T21:05:47.278Z,0.50
2019-01-21T21:08:16.436Z,0.60
2019-01-21T21:10:45.798Z,0.60
2019-01-21T21:13:14.652Z,0.60
2019-01-21T21:15:43.771Z,0.50
2019-01-21T21:18:12.565Z,0.50
2019-01-21T21:20:41.644Z,0.40
2019-01-21T21:23:10.726Z,0.40
2019-01-21T21:25:39.909Z,0.40
2019-01-21T21:28:08.864Z,0.40
2019-01-21T21:30:37.987Z,0.40
2019-01-21T21:33:07.240Z,0.30
2019-01-21T21:35:36.480Z,0.20
2019-01-21T21:38:05.724Z,0.20
2019-01-21T21:40:34.554Z,0.10
2019-01-21T21:43:03.366Z,0.10
2019-01-21T21:45:32.600Z,0.00
2019-01-21T21:48:01.482Z,0.00
2019-01-21T21:50:32.097Z,0.00
2019-01-21T21:53:01.312Z,-0.10
2019-01-21T21:55:31.988Z,-0.10
2019-01-21T21:58:04.774Z,-0.10
2019-01-21T22:00:36.204Z,-0.20
2019-01-21T22:03:08.066Z,-0.20
2019-01-21T22:05:39.387Z,-0.20
2019-01-21T22:08:08.177Z,-0.20
2019-01-21T22:10:37.428Z,-0.30
2019-01-21T22:13:06.268Z,-0.30
2019-01-21T22:15:35.227Z,-0.30
2019-01-21T22:18:04.379Z,-0.30
2019-01-21T22:20:33.274Z,-0.30
2019-01-21T22:23:06.338Z,-0.40
2019-01-21T22:25:39.489Z,-0.40
2019-01-21T22:28:12.840Z,-0.40
2019-01-21T22:30:45.745Z,-0.40
2019-01-21T22:33:15.129Z,-0.40
2019-01-21T22:35:49.375Z,-0.40
2019-01-21T22:38:25.537Z,-0.50
2019-01-21T22:41:01.305Z,-0.50
2019-01-21T22:43:44.232Z,-0.50
2019-01-21T22:46:13.041Z,-0.60
2019-01-21T22:48:42.068Z,-0.60
2019-01-21T22:51:10.943Z,-0.60
2019-01-21T22:53:40.012Z,-0.60
2019-01-21T22:56:09.057Z,-0.60
2019-01-21T22:58:37.854Z,-0.60
2019-01-21T23:01:30.979Z,-0.60
2019-01-21T23:03:59.925Z,-0.60
2019-01-21T23:06:28.898Z,-0.70
2019-01-21T23:08:57.989Z,-0.70
2019-01-21T23:11:26.951Z,-0.70
2019-01-21T23:13:55.853Z,-0.70
2019-01-21T23:16:24.924Z,-0.80
2019-01-21T23:18:53.844Z,-0.80
2019-01-21T23:21:22.656Z,-0.80
2019-01-21T23:23:51.857Z,-0.80
2019-01-21T23:26:20.755Z,-0.80
2019-01-21T23:28:49.847Z,-0.80
2019-01-21T23:31:18.821Z,-0.90
2019-01-21T23:33:47.682Z,-0.90
2019-01-21T23:36:16.715Z,-0.90
2019-01-21T23:38:45.787Z,-0.90
2019-01-21T23:41:14.628Z,-0.90
2019-01-21T23:43:43.425Z,-0.90
2019-01-21T23:46:12.576Z,-0.90
2019-01-21T23:48:41.359Z,-0.90
2019-01-21T23:51:10.329Z,-0.90
2019-01-21T23:53:39.493Z,-0.90
2019-01-21T23:56:08.568Z,-1.00
2019-01-21T23:58:37.641Z,-1.00
